sensor_id;sensor_type;location;lat;lon;timestamp;P1;durP1;ratioP1;P2;durP2;ratioP2
68192;SDS011;55012;47.562;18.414;2022-12-07T00:00:00;58.92;;;24.95;;
68192;SDS011;55012;47.562;18.414;2022-12-07T00:02:26;36.50;;;16.58;;
68192;SDS011;55012;47.562;18.414;2022-12-07T00:04:52;38.08;;;15.45;;
68192;SDS011;55012;47.562;18.414;2022-12-07T00:07:17;26.30;;;12.15;;
68192;SDS011;55012;47.562;18.414;2022-12-07T00:09:43;39.65;;;16.60;;
68192;SDS011;55012;47.562;18.414;2022-12-07T00:12:08;82.95;;;30.88;;
68192;SDS011;55012;47.562;18.414;2022-12-07T00:14:34;81.25;;;30.60;;
68192;SDS011;55012;47.562;18.414;2022-12-07T00:16:59;33.50;;;14.88;;
68192;SDS011;55012;47.562;18.414;2022-12-07T00:19:24;44.78;;;19.23;;
68192;SDS011;55012;47.562;18.414;2022-12-07T00:21:50;30.30;;;13.85;;
68192;SDS011;55012;47.562;18.414;2022-12-07T00:24:16;26.17;;;11.88;;
68192;SDS011;55012;47.562;18.414;2022-12-07T00:26:41;20.70;;;10.77;;
68192;SDS011;55012;47.562;18.414;2022-12-07T00:31:43;27.90;;;12.88;;
68192;SDS011;55012;47.562;18.414;2022-12-07T00:34:13;27.13;;;12.25;;
68192;SDS011;55012;47.562;18.414;2022-12-07T00:36:41;39.88;;;16.33;;
68192;SDS011;55012;47.562;18.414;2022-12-07T00:39:07;23.45;;;10.07;;
68192;SDS011;55012;47.562;18.414;2022-12-07T00:41:33;30.75;;;13.23;;
68192;SDS011;55012;47.562;18.414;2022-12-07T00:43:59;18.52;;;9.15;;
68192;SDS011;55012;47.562;18.414;2022-12-07T00:46:24;75.57;;;27.95;;
68192;SDS011;55012;47.562;18.414;2022-12-07T00:48:51;56.28;;;21.30;;
68192;SDS011;55012;47.562;18.414;2022-12-07T00:51:18;21.05;;;10.32;;
68192;SDS011;55012;47.562;18.414;2022-12-07T00:53:45;64.95;;;23.75;;
68192;SDS011;55012;47.562;18.414;2022-12-07T00:56:11;60.50;;;23.45;;
68192;SDS011;55012;47.562;18.414;2022-12-07T00:58:40;63.58;;;23.50;;
68192;SDS011;55012;47.562;18.414;2022-12-07T01:01:07;57.65;;;20.77;;
68192;SDS011;55012;47.562;18.414;2022-12-07T01:03:33;42.28;;;17.40;;
68192;SDS011;55012;47.562;18.414;2022-12-07T01:05:59;19.55;;;9.77;;
68192;SDS011;55012;47.562;18.414;2022-12-07T01:08:25;22.63;;;11.02;;
68192;SDS011;55012;47.562;18.414;2022-12-07T01:11:03;52.15;;;20.98;;
68192;SDS011;55012;47.562;18.414;2022-12-07T01:13:30;26.77;;;12.88;;
68192;SDS011;55012;47.562;18.414;2022-12-07T01:15:58;47.00;;;17.38;;
68192;SDS011;55012;47.562;18.414;2022-12-07T01:18:28;50.05;;;19.38;;
68192;SDS011;55012;47.562;18.414;2022-12-07T01:21:04;44.38;;;18.08;;
68192;SDS011;55012;47.562;18.414;2022-12-07T01:23:50;40.25;;;17.15;;
68192;SDS011;55012;47.562;18.414;2022-12-07T01:26:17;37.90;;;14.90;;
68192;SDS011;55012;47.562;18.414;2022-12-07T01:28:44;34.80;;;14.93;;
68192;SDS011;55012;47.562;18.414;2022-12-07T01:31:11;38.38;;;15.77;;
68192;SDS011;55012;47.562;18.414;2022-12-07T01:33:40;49.92;;;19.85;;
68192;SDS011;55012;47.562;18.414;2022-12-07T01:36:07;65.28;;;25.30;;
68192;SDS011;55012;47.562;18.414;2022-12-07T01:38:45;52.13;;;21.90;;
68192;SDS011;55012;47.562;18.414;2022-12-07T01:41:11;63.60;;;26.60;;
68192;SDS011;55012;47.562;18.414;2022-12-07T01:44:06;60.42;;;25.63;;
68192;SDS011;55012;47.562;18.414;2022-12-07T01:46:40;67.03;;;26.55;;
68192;SDS011;55012;47.562;18.414;2022-12-07T01:49:28;73.55;;;28.88;;
68192;SDS011;55012;47.562;18.414;2022-12-07T01:52:28;64.47;;;25.52;;
68192;SDS011;55012;47.562;18.414;2022-12-07T01:54:57;66.93;;;26.42;;
68192;SDS011;55012;47.562;18.414;2022-12-07T01:57:26;75.25;;;30.48;;
68192;SDS011;55012;47.562;18.414;2022-12-07T01:59:53;78.28;;;30.05;;
68192;SDS011;55012;47.562;18.414;2022-12-07T02:02:27;72.93;;;28.70;;
68192;SDS011;55012;47.562;18.414;2022-12-07T02:04:57;81.70;;;28.70;;
68192;SDS011;55012;47.562;18.414;2022-12-07T02:07:25;66.80;;;25.63;;
68192;SDS011;55012;47.562;18.414;2022-12-07T02:09:52;63.65;;;22.95;;
68192;SDS011;55012;47.562;18.414;2022-12-07T02:12:18;62.35;;;22.67;;
68192;SDS011;55012;47.562;18.414;2022-12-07T02:14:45;59.90;;;23.38;;
68192;SDS011;55012;47.562;18.414;2022-12-07T02:17:17;69.90;;;26.75;;
68192;SDS011;55012;47.562;18.414;2022-12-07T02:30:46;66.53;;;26.08;;
68192;SDS011;55012;47.562;18.414;2022-12-07T02:33:14;65.45;;;25.30;;
68192;SDS011;55012;47.562;18.414;2022-12-07T02:36:06;74.57;;;25.45;;
68192;SDS011;55012;47.562;18.414;2022-12-07T02:41:09;70.80;;;25.85;;
68192;SDS011;55012;47.562;18.414;2022-12-07T02:43:39;70.68;;;27.33;;
68192;SDS011;55012;47.562;18.414;2022-12-07T02:46:19;76.80;;;28.50;;
68192;SDS011;55012;47.562;18.414;2022-12-07T02:48:48;72.53;;;28.42;;
68192;SDS011;55012;47.562;18.414;2022-12-07T02:51:17;68.78;;;25.48;;
68192;SDS011;55012;47.562;18.414;2022-12-07T02:53:43;71.85;;;26.67;;
68192;SDS011;55012;47.562;18.414;2022-12-07T02:56:15;58.45;;;22.10;;
68192;SDS011;55012;47.562;18.414;2022-12-07T03:01:15;44.47;;;18.20;;
68192;SDS011;55012;47.562;18.414;2022-12-07T03:06:56;29.58;;;13.55;;
68192;SDS011;55012;47.562;18.414;2022-12-07T03:09:44;35.22;;;14.73;;
68192;SDS011;55012;47.562;18.414;2022-12-07T03:12:32;22.20;;;9.95;;
68192;SDS011;55012;47.562;18.414;2022-12-07T03:15:12;40.30;;;17.90;;
68192;SDS011;55012;47.562;18.414;2022-12-07T03:17:59;67.65;;;24.75;;
68192;SDS011;55012;47.562;18.414;2022-12-07T03:20:28;54.15;;;20.77;;
68192;SDS011;55012;47.562;18.414;2022-12-07T03:22:54;57.60;;;22.08;;
68192;SDS011;55012;47.562;18.414;2022-12-07T03:25:21;23.08;;;10.77;;
68192;SDS011;55012;47.562;18.414;2022-12-07T03:27:57;33.13;;;13.75;;
68192;SDS011;55012;47.562;18.414;2022-12-07T03:35:53;32.83;;;13.50;;
68192;SDS011;55012;47.562;18.414;2022-12-07T03:38:40;62.15;;;21.67;;
68192;SDS011;55012;47.562;18.414;2022-12-07T03:41:15;50.35;;;20.40;;
68192;SDS011;55012;47.562;18.414;2022-12-07T03:43:44;52.25;;;19.95;;
68192;SDS011;55012;47.562;18.414;2022-12-07T03:48:54;46.85;;;19.42;;
68192;SDS011;55012;47.562;18.414;2022-12-07T03:54:19;45.80;;;17.35;;
68192;SDS011;55012;47.562;18.414;2022-12-07T03:56:51;38.03;;;14.93;;
68192;SDS011;55012;47.562;18.414;2022-12-07T03:59:19;65.30;;;25.27;;
68192;SDS011;55012;47.562;18.414;2022-12-07T04:01:48;46.70;;;17.90;;
68192;SDS011;55012;47.562;18.414;2022-12-07T04:04:18;43.47;;;17.65;;
68192;SDS011;55012;47.562;18.414;2022-12-07T04:06:44;62.08;;;25.27;;
68192;SDS011;55012;47.562;18.414;2022-12-07T04:09:09;54.20;;;20.60;;
68192;SDS011;55012;47.562;18.414;2022-12-07T04:11:35;50.03;;;19.40;;
68192;SDS011;55012;47.562;18.414;2022-12-07T04:14:00;49.85;;;19.73;;
68192;SDS011;55012;47.562;18.414;2022-12-07T04:16:44;50.88;;;20.45;;
68192;SDS011;55012;47.562;18.414;2022-12-07T04:19:14;56.92;;;21.17;;
68192;SDS011;55012;47.562;18.414;2022-12-07T04:21:41;49.90;;;20.30;;
68192;SDS011;55012;47.562;18.414;2022-12-07T04:24:06;44.40;;;19.00;;
68192;SDS011;55012;47.562;18.414;2022-12-07T04:26:32;39.72;;;15.75;;
68192;SDS011;55012;47.562;18.414;2022-12-07T04:28:57;36.72;;;15.25;;
68192;SDS011;55012;47.562;18.414;2022-12-07T04:31:23;35.85;;;15.85;;
68192;SDS011;55012;47.562;18.414;2022-12-07T04:33:48;36.33;;;16.15;;
68192;SDS011;55012;47.562;18.414;2022-12-07T04:36:14;51.63;;;18.63;;
68192;SDS011;55012;47.562;18.414;2022-12-07T04:38:39;44.90;;;17.65;;
68192;SDS011;55012;47.562;18.414;2022-12-07T04:41:08;42.28;;;17.25;;
68192;SDS011;55012;47.562;18.414;2022-12-07T04:43:34;47.33;;;17.60;;
68192;SDS011;55012;47.562;18.414;2022-12-07T04:46:01;40.30;;;16.70;;
68192;SDS011;55012;47.562;18.414;2022-12-07T04:48:27;41.03;;;16.35;;
68192;SDS011;55012;47.562;18.414;2022-12-07T04:50:53;39.83;;;16.02;;
68192;SDS011;55012;47.562;18.414;2022-12-07T04:53:18;42.22;;;16.77;;
68192;SDS011;55012;47.562;18.414;2022-12-07T04:55:45;37.28;;;15.60;;
68192;SDS011;55012;47.562;18.414;2022-12-07T04:58:11;42.72;;;17.35;;
68192;SDS011;55012;47.562;18.414;2022-12-07T05:00:37;26.05;;;12.88;;
68192;SDS011;55012;47.562;18.414;2022-12-07T05:03:02;32.75;;;14.27;;
68192;SDS011;55012;47.562;18.414;2022-12-07T05:05:28;29.77;;;12.93;;
68192;SDS011;55012;47.562;18.414;2022-12-07T05:07:53;28.88;;;12.93;;
68192;SDS011;55012;47.562;18.414;2022-12-07T05:10:19;29.00;;;13.02;;
68192;SDS011;55012;47.562;18.414;2022-12-07T05:12:45;30.67;;;13.68;;
68192;SDS011;55012;47.562;18.414;2022-12-07T05:15:11;28.13;;;13.30;;
68192;SDS011;55012;47.562;18.414;2022-12-07T05:17:37;28.55;;;12.82;;
68192;SDS011;55012;47.562;18.414;2022-12-07T05:20:03;30.17;;;13.32;;
68192;SDS011;55012;47.562;18.414;2022-12-07T05:22:29;36.70;;;15.13;;
68192;SDS011;55012;47.562;18.414;2022-12-07T05:24:54;38.67;;;17.13;;
68192;SDS011;55012;47.562;18.414;2022-12-07T05:27:20;36.15;;;16.08;;
68192;SDS011;55012;47.562;18.414;2022-12-07T05:29:46;26.83;;;13.82;;
68192;SDS011;55012;47.562;18.414;2022-12-07T05:32:11;31.17;;;13.98;;
68192;SDS011;55012;47.562;18.414;2022-12-07T05:34:37;26.52;;;13.13;;
68192;SDS011;55012;47.562;18.414;2022-12-07T05:37:02;25.13;;;12.82;;
68192;SDS011;55012;47.562;18.414;2022-12-07T05:39:28;31.67;;;14.75;;
68192;SDS011;55012;47.562;18.414;2022-12-07T05:41:53;31.00;;;14.90;;
68192;SDS011;55012;47.562;18.414;2022-12-07T05:44:37;29.27;;;13.55;;
68192;SDS011;55012;47.562;18.414;2022-12-07T05:47:03;34.90;;;15.32;;
68192;SDS011;55012;47.562;18.414;2022-12-07T05:49:29;34.67;;;15.18;;
68192;SDS011;55012;47.562;18.414;2022-12-07T05:51:55;34.90;;;15.77;;
68192;SDS011;55012;47.562;18.414;2022-12-07T05:54:20;34.35;;;15.77;;
68192;SDS011;55012;47.562;18.414;2022-12-07T05:56:46;36.70;;;16.33;;
68192;SDS011;55012;47.562;18.414;2022-12-07T05:59:11;33.78;;;16.20;;
68192;SDS011;55012;47.562;18.414;2022-12-07T06:01:58;32.30;;;14.82;;
68192;SDS011;55012;47.562;18.414;2022-12-07T06:04:25;35.95;;;15.18;;
68192;SDS011;55012;47.562;18.414;2022-12-07T06:06:52;32.70;;;14.93;;
68192;SDS011;55012;47.562;18.414;2022-12-07T06:09:18;37.03;;;16.15;;
68192;SDS011;55012;47.562;18.414;2022-12-07T06:11:45;34.25;;;15.18;;
68192;SDS011;55012;47.562;18.414;2022-12-07T06:14:29;31.17;;;14.68;;
68192;SDS011;55012;47.562;18.414;2022-12-07T06:16:54;32.22;;;14.90;;
68192;SDS011;55012;47.562;18.414;2022-12-07T06:19:20;30.73;;;15.25;;
68192;SDS011;55012;47.562;18.414;2022-12-07T06:21:45;28.75;;;13.75;;
68192;SDS011;55012;47.562;18.414;2022-12-07T06:24:11;26.40;;;12.27;;
68192;SDS011;55012;47.562;18.414;2022-12-07T06:26:38;26.27;;;12.50;;
68192;SDS011;55012;47.562;18.414;2022-12-07T06:29:03;30.25;;;13.82;;
68192;SDS011;55012;47.562;18.414;2022-12-07T06:31:29;31.73;;;14.55;;
68192;SDS011;55012;47.562;18.414;2022-12-07T06:33:59;30.20;;;14.38;;
68192;SDS011;55012;47.562;18.414;2022-12-07T06:36:25;33.70;;;14.43;;
68192;SDS011;55012;47.562;18.414;2022-12-07T06:38:51;34.03;;;15.35;;
68192;SDS011;55012;47.562;18.414;2022-12-07T06:41:17;34.50;;;15.77;;
68192;SDS011;55012;47.562;18.414;2022-12-07T06:43:42;33.17;;;14.80;;
68192;SDS011;55012;47.562;18.414;2022-12-07T06:46:07;31.27;;;15.32;;
68192;SDS011;55012;47.562;18.414;2022-12-07T06:48:33;40.25;;;17.52;;
68192;SDS011;55012;47.562;18.414;2022-12-07T06:50:58;33.90;;;15.63;;
68192;SDS011;55012;47.562;18.414;2022-12-07T06:53:24;34.03;;;16.08;;
68192;SDS011;55012;47.562;18.414;2022-12-07T06:55:50;33.38;;;15.48;;
68192;SDS011;55012;47.562;18.414;2022-12-07T06:58:16;33.03;;;15.70;;
68192;SDS011;55012;47.562;18.414;2022-12-07T07:00:41;28.90;;;14.18;;
68192;SDS011;55012;47.562;18.414;2022-12-07T07:03:07;25.88;;;12.88;;
68192;SDS011;55012;47.562;18.414;2022-12-07T07:05:32;28.85;;;14.20;;
68192;SDS011;55012;47.562;18.414;2022-12-07T07:07:58;27.85;;;14.10;;
68192;SDS011;55012;47.562;18.414;2022-12-07T07:10:23;27.08;;;13.20;;
68192;SDS011;55012;47.562;18.414;2022-12-07T07:12:49;32.78;;;14.10;;
68192;SDS011;55012;47.562;18.414;2022-12-07T07:15:14;27.02;;;13.20;;
68192;SDS011;55012;47.562;18.414;2022-12-07T07:17:40;29.67;;;13.50;;
68192;SDS011;55012;47.562;18.414;2022-12-07T07:20:05;28.52;;;13.70;;
68192;SDS011;55012;47.562;18.414;2022-12-07T07:22:31;28.02;;;13.82;;
68192;SDS011;55012;47.562;18.414;2022-12-07T07:24:57;31.85;;;14.57;;
68192;SDS011;55012;47.562;18.414;2022-12-07T07:27:22;31.17;;;14.70;;
68192;SDS011;55012;47.562;18.414;2022-12-07T07:29:47;32.42;;;15.80;;
68192;SDS011;55012;47.562;18.414;2022-12-07T07:32:14;33.15;;;15.07;;
68192;SDS011;55012;47.562;18.414;2022-12-07T07:34:40;28.85;;;14.77;;
68192;SDS011;55012;47.562;18.414;2022-12-07T07:37:06;31.65;;;14.45;;
68192;SDS011;55012;47.562;18.414;2022-12-07T07:39:31;34.90;;;15.32;;
68192;SDS011;55012;47.562;18.414;2022-12-07T07:41:57;33.95;;;15.20;;
68192;SDS011;55012;47.562;18.414;2022-12-07T07:44:22;30.60;;;14.57;;
68192;SDS011;55012;47.562;18.414;2022-12-07T07:46:48;36.72;;;15.00;;
68192;SDS011;55012;47.562;18.414;2022-12-07T07:49:13;32.50;;;14.80;;
68192;SDS011;55012;47.562;18.414;2022-12-07T07:51:38;31.33;;;14.48;;
68192;SDS011;55012;47.562;18.414;2022-12-07T07:54:04;31.05;;;14.45;;
68192;SDS011;55012;47.562;18.414;2022-12-07T07:56:30;35.92;;;17.30;;
68192;SDS011;55012;47.562;18.414;2022-12-07T07:58:55;38.00;;;17.80;;
68192;SDS011;55012;47.562;18.414;2022-12-07T08:01:21;36.83;;;17.65;;
68192;SDS011;55012;47.562;18.414;2022-12-07T08:03:47;43.42;;;18.35;;
68192;SDS011;55012;47.562;18.414;2022-12-07T08:06:12;37.35;;;17.48;;
68192;SDS011;55012;47.562;18.414;2022-12-07T08:08:38;38.55;;;17.85;;
68192;SDS011;55012;47.562;18.414;2022-12-07T08:11:07;42.30;;;19.75;;
68192;SDS011;55012;47.562;18.414;2022-12-07T08:13:33;40.10;;;19.40;;
68192;SDS011;55012;47.562;18.414;2022-12-07T08:16:03;34.03;;;16.70;;
68192;SDS011;55012;47.562;18.414;2022-12-07T08:18:29;35.25;;;16.65;;
68192;SDS011;55012;47.562;18.414;2022-12-07T08:21:00;39.05;;;18.17;;
68192;SDS011;55012;47.562;18.414;2022-12-07T08:23:26;34.38;;;16.88;;
68192;SDS011;55012;47.562;18.414;2022-12-07T08:25:52;31.50;;;15.27;;
68192;SDS011;55012;47.562;18.414;2022-12-07T08:28:17;32.78;;;15.25;;
68192;SDS011;55012;47.562;18.414;2022-12-07T08:30:43;31.25;;;15.38;;
68192;SDS011;55012;47.562;18.414;2022-12-07T08:33:09;32.97;;;15.95;;
68192;SDS011;55012;47.562;18.414;2022-12-07T08:35:35;37.00;;;17.98;;
68192;SDS011;55012;47.562;18.414;2022-12-07T08:38:01;34.60;;;15.82;;
68192;SDS011;55012;47.562;18.414;2022-12-07T08:40:27;36.63;;;17.67;;
68192;SDS011;55012;47.562;18.414;2022-12-07T08:42:53;31.75;;;15.77;;
68192;SDS011;55012;47.562;18.414;2022-12-07T08:45:19;33.25;;;15.93;;
68192;SDS011;55012;47.562;18.414;2022-12-07T08:47:48;33.33;;;15.90;;
68192;SDS011;55012;47.562;18.414;2022-12-07T08:50:19;33.90;;;17.25;;
68192;SDS011;55012;47.562;18.414;2022-12-07T08:52:47;37.17;;;18.33;;
68192;SDS011;55012;47.562;18.414;2022-12-07T08:55:16;35.05;;;16.98;;
68192;SDS011;55012;47.562;18.414;2022-12-07T08:57:42;29.40;;;14.25;;
68192;SDS011;55012;47.562;18.414;2022-12-07T09:00:08;25.25;;;12.18;;
68192;SDS011;55012;47.562;18.414;2022-12-07T09:02:34;29.52;;;13.43;;
68192;SDS011;55012;47.562;18.414;2022-12-07T09:05:00;27.73;;;13.68;;
68192;SDS011;55012;47.562;18.414;2022-12-07T09:07:25;33.20;;;14.18;;
68192;SDS011;55012;47.562;18.414;2022-12-07T09:09:51;33.55;;;14.35;;
68192;SDS011;55012;47.562;18.414;2022-12-07T09:12:17;34.30;;;14.55;;
68192;SDS011;55012;47.562;18.414;2022-12-07T09:14:42;39.17;;;14.75;;
68192;SDS011;55012;47.562;18.414;2022-12-07T09:17:08;36.58;;;15.25;;
68192;SDS011;55012;47.562;18.414;2022-12-07T09:19:36;25.13;;;11.82;;
68192;SDS011;55012;47.562;18.414;2022-12-07T09:22:02;25.38;;;11.70;;
68192;SDS011;55012;47.562;18.414;2022-12-07T09:24:29;20.55;;;10.18;;
68192;SDS011;55012;47.562;18.414;2022-12-07T09:26:55;22.60;;;10.43;;
68192;SDS011;55012;47.562;18.414;2022-12-07T09:29:21;20.48;;;9.82;;
68192;SDS011;55012;47.562;18.414;2022-12-07T09:31:47;20.67;;;9.68;;
68192;SDS011;55012;47.562;18.414;2022-12-07T09:34:12;21.08;;;9.90;;
68192;SDS011;55012;47.562;18.414;2022-12-07T09:36:37;20.02;;;10.27;;
68192;SDS011;55012;47.562;18.414;2022-12-07T09:39:03;18.73;;;9.38;;
68192;SDS011;55012;47.562;18.414;2022-12-07T09:41:30;21.73;;;10.20;;
68192;SDS011;55012;47.562;18.414;2022-12-07T09:44:00;21.20;;;10.27;;
68192;SDS011;55012;47.562;18.414;2022-12-07T09:46:29;19.83;;;10.13;;
68192;SDS011;55012;47.562;18.414;2022-12-07T09:49:01;21.02;;;10.48;;
68192;SDS011;55012;47.562;18.414;2022-12-07T09:51:27;19.67;;;9.90;;
68192;SDS011;55012;47.562;18.414;2022-12-07T09:53:53;20.40;;;10.43;;
68192;SDS011;55012;47.562;18.414;2022-12-07T09:56:21;18.25;;;9.65;;
68192;SDS011;55012;47.562;18.414;2022-12-07T09:58:48;19.65;;;10.25;;
68192;SDS011;55012;47.562;18.414;2022-12-07T10:01:15;18.60;;;8.82;;
68192;SDS011;55012;47.562;18.414;2022-12-07T10:03:45;21.25;;;10.10;;
68192;SDS011;55012;47.562;18.414;2022-12-07T10:06:15;18.05;;;9.50;;
68192;SDS011;55012;47.562;18.414;2022-12-07T10:08:41;22.25;;;11.00;;
68192;SDS011;55012;47.562;18.414;2022-12-07T10:11:08;19.30;;;9.77;;
68192;SDS011;55012;47.562;18.414;2022-12-07T10:13:39;19.10;;;10.07;;
68192;SDS011;55012;47.562;18.414;2022-12-07T10:18:52;17.67;;;8.68;;
68192;SDS011;55012;47.562;18.414;2022-12-07T10:24:19;17.60;;;9.23;;
68192;SDS011;55012;47.562;18.414;2022-12-07T10:26:50;18.08;;;9.45;;
68192;SDS011;55012;47.562;18.414;2022-12-07T10:31:45;18.08;;;9.50;;
68192;SDS011;55012;47.562;18.414;2022-12-07T10:34:25;14.50;;;7.63;;
68192;SDS011;55012;47.562;18.414;2022-12-07T10:36:51;15.95;;;8.52;;
68192;SDS011;55012;47.562;18.414;2022-12-07T10:39:18;16.50;;;8.38;;
68192;SDS011;55012;47.562;18.414;2022-12-07T10:44:33;14.05;;;7.82;;
68192;SDS011;55012;47.562;18.414;2022-12-07T10:52:18;16.25;;;8.57;;
68192;SDS011;55012;47.562;18.414;2022-12-07T11:00:24;18.52;;;8.75;;
68192;SDS011;55012;47.562;18.414;2022-12-07T11:06:12;16.63;;;8.73;;
68192;SDS011;55012;47.562;18.414;2022-12-07T11:08:57;15.85;;;7.65;;
68192;SDS011;55012;47.562;18.414;2022-12-07T11:16:57;16.20;;;7.85;;
68192;SDS011;55012;47.562;18.414;2022-12-07T11:30:46;16.40;;;8.40;;
68192;SDS011;55012;47.562;18.414;2022-12-07T11:36:41;19.10;;;8.70;;
68192;SDS011;55012;47.562;18.414;2022-12-07T11:41:38;19.08;;;9.50;;
68192;SDS011;55012;47.562;18.414;2022-12-07T11:47:10;15.60;;;7.93;;
68192;SDS011;55012;47.562;18.414;2022-12-07T11:50:11;16.08;;;8.20;;
68192;SDS011;55012;47.562;18.414;2022-12-07T11:52:58;18.13;;;9.43;;
68192;SDS011;55012;47.562;18.414;2022-12-07T12:03:58;15.55;;;8.23;;
68192;SDS011;55012;47.562;18.414;2022-12-07T12:06:31;15.43;;;7.82;;
68192;SDS011;55012;47.562;18.414;2022-12-07T12:09:13;16.85;;;8.35;;
68192;SDS011;55012;47.562;18.414;2022-12-07T12:14:48;18.42;;;8.82;;
68192;SDS011;55012;47.562;18.414;2022-12-07T12:20:40;16.08;;;8.35;;
68192;SDS011;55012;47.562;18.414;2022-12-07T12:25:55;18.10;;;8.15;;
68192;SDS011;55012;47.562;18.414;2022-12-07T12:28:36;16.73;;;8.00;;
68192;SDS011;55012;47.562;18.414;2022-12-07T12:33:53;15.65;;;8.45;;
68192;SDS011;55012;47.562;18.414;2022-12-07T12:46:54;15.07;;;7.45;;
68192;SDS011;55012;47.562;18.414;2022-12-07T12:49:38;14.52;;;7.00;;
68192;SDS011;55012;47.562;18.414;2022-12-07T12:54:40;12.80;;;5.68;;
68192;SDS011;55012;47.562;18.414;2022-12-07T12:57:33;14.80;;;6.50;;
68192;SDS011;55012;47.562;18.414;2022-12-07T13:00:00;11.77;;;6.18;;
68192;SDS011;55012;47.562;18.414;2022-12-07T13:02:50;17.08;;;7.50;;
68192;SDS011;55012;47.562;18.414;2022-12-07T13:05:22;15.90;;;7.88;;
68192;SDS011;55012;47.562;18.414;2022-12-07T13:10:42;14.18;;;6.57;;
68192;SDS011;55012;47.562;18.414;2022-12-07T13:20:57;14.15;;;6.10;;
68192;SDS011;55012;47.562;18.414;2022-12-07T13:23:30;13.68;;;6.60;;
68192;SDS011;55012;47.562;18.414;2022-12-07T13:28:41;16.38;;;6.28;;
68192;SDS011;55012;47.562;18.414;2022-12-07T13:33:44;16.52;;;7.75;;
68192;SDS011;55012;47.562;18.414;2022-12-07T13:36:24;13.68;;;6.55;;
68192;SDS011;55012;47.562;18.414;2022-12-07T13:38:54;17.92;;;8.13;;
68192;SDS011;55012;47.562;18.414;2022-12-07T13:41:28;19.27;;;8.27;;
68192;SDS011;55012;47.562;18.414;2022-12-07T13:44:02;20.17;;;7.65;;
68192;SDS011;55012;47.562;18.414;2022-12-07T13:46:51;21.75;;;9.25;;
68192;SDS011;55012;47.562;18.414;2022-12-07T13:49:28;20.00;;;8.52;;
68192;SDS011;55012;47.562;18.414;2022-12-07T13:52:06;18.48;;;8.15;;
68192;SDS011;55012;47.562;18.414;2022-12-07T13:54:46;19.65;;;8.32;;
68192;SDS011;55012;47.562;18.414;2022-12-07T13:57:33;19.92;;;9.18;;
68192;SDS011;55012;47.562;18.414;2022-12-07T14:00:02;20.73;;;8.48;;
68192;SDS011;55012;47.562;18.414;2022-12-07T14:02:33;24.67;;;9.07;;
68192;SDS011;55012;47.562;18.414;2022-12-07T14:07:59;17.48;;;7.93;;
68192;SDS011;55012;47.562;18.414;2022-12-07T14:13:00;18.42;;;7.82;;
68192;SDS011;55012;47.562;18.414;2022-12-07T14:15:28;18.67;;;7.97;;
68192;SDS011;55012;47.562;18.414;2022-12-07T14:17:55;16.55;;;7.00;;
68192;SDS011;55012;47.562;18.414;2022-12-07T14:20:40;17.65;;;7.88;;
68192;SDS011;55012;47.562;18.414;2022-12-07T14:23:21;16.30;;;7.63;;
68192;SDS011;55012;47.562;18.414;2022-12-07T14:25:49;14.82;;;7.25;;
68192;SDS011;55012;47.562;18.414;2022-12-07T14:28:27;15.90;;;7.70;;
68192;SDS011;55012;47.562;18.414;2022-12-07T14:30:54;15.15;;;7.47;;
68192;SDS011;55012;47.562;18.414;2022-12-07T14:33:19;15.23;;;7.38;;
68192;SDS011;55012;47.562;18.414;2022-12-07T14:35:46;17.67;;;7.50;;
68192;SDS011;55012;47.562;18.414;2022-12-07T14:38:12;14.82;;;7.53;;
68192;SDS011;55012;47.562;18.414;2022-12-07T14:40:37;14.23;;;7.13;;
68192;SDS011;55012;47.562;18.414;2022-12-07T14:43:10;15.85;;;7.25;;
68192;SDS011;55012;47.562;18.414;2022-12-07T14:45:39;15.85;;;7.60;;
68192;SDS011;55012;47.562;18.414;2022-12-07T14:48:05;16.15;;;7.80;;
68192;SDS011;55012;47.562;18.414;2022-12-07T14:50:34;16.40;;;8.30;;
68192;SDS011;55012;47.562;18.414;2022-12-07T14:53:05;19.83;;;8.65;;
68192;SDS011;55012;47.562;18.414;2022-12-07T14:55:37;23.70;;;11.13;;
68192;SDS011;55012;47.562;18.414;2022-12-07T14:58:02;33.05;;;15.80;;
68192;SDS011;55012;47.562;18.414;2022-12-07T15:00:28;35.67;;;16.13;;
68192;SDS011;55012;47.562;18.414;2022-12-07T15:02:54;43.83;;;19.35;;
68192;SDS011;55012;47.562;18.414;2022-12-07T15:05:21;32.92;;;15.05;;
68192;SDS011;55012;47.562;18.414;2022-12-07T15:07:47;18.70;;;9.88;;
68192;SDS011;55012;47.562;18.414;2022-12-07T15:10:23;20.00;;;9.80;;
68192;SDS011;55012;47.562;18.414;2022-12-07T15:12:57;23.88;;;9.95;;
68192;SDS011;55012;47.562;18.414;2022-12-07T15:15:42;21.58;;;10.43;;
68192;SDS011;55012;47.562;18.414;2022-12-07T15:18:08;24.42;;;10.75;;
68192;SDS011;55012;47.562;18.414;2022-12-07T15:20:33;23.70;;;10.95;;
68192;SDS011;55012;47.562;18.414;2022-12-07T15:22:59;19.80;;;9.40;;
68192;SDS011;55012;47.562;18.414;2022-12-07T15:25:24;18.90;;;9.13;;
68192;SDS011;55012;47.562;18.414;2022-12-07T15:27:49;20.55;;;8.88;;
68192;SDS011;55012;47.562;18.414;2022-12-07T15:30:15;19.65;;;9.18;;
68192;SDS011;55012;47.562;18.414;2022-12-07T15:32:40;22.73;;;10.07;;
68192;SDS011;55012;47.562;18.414;2022-12-07T15:35:06;22.98;;;10.50;;
68192;SDS011;55012;47.562;18.414;2022-12-07T15:37:32;23.90;;;10.15;;
68192;SDS011;55012;47.562;18.414;2022-12-07T15:39:58;25.08;;;9.82;;
68192;SDS011;55012;47.562;18.414;2022-12-07T15:42:23;19.88;;;9.07;;
68192;SDS011;55012;47.562;18.414;2022-12-07T15:44:48;20.77;;;9.48;;
68192;SDS011;55012;47.562;18.414;2022-12-07T15:47:42;23.17;;;10.27;;
68192;SDS011;55012;47.562;18.414;2022-12-07T15:50:13;23.80;;;9.90;;
68192;SDS011;55012;47.562;18.414;2022-12-07T15:52:40;23.20;;;10.35;;
68192;SDS011;55012;47.562;18.414;2022-12-07T15:55:06;29.05;;;12.88;;
68192;SDS011;55012;47.562;18.414;2022-12-07T15:57:33;38.53;;;16.02;;
68192;SDS011;55012;47.562;18.414;2022-12-07T16:00:00;28.52;;;11.98;;
68192;SDS011;55012;47.562;18.414;2022-12-07T16:02:26;30.83;;;13.02;;
68192;SDS011;55012;47.562;18.414;2022-12-07T16:04:51;25.27;;;12.13;;
68192;SDS011;55012;47.562;18.414;2022-12-07T16:07:21;30.50;;;13.13;;
68192;SDS011;55012;47.562;18.414;2022-12-07T16:09:46;30.50;;;14.20;;
68192;SDS011;55012;47.562;18.414;2022-12-07T16:12:14;35.17;;;15.10;;
68192;SDS011;55012;47.562;18.414;2022-12-07T16:14:40;37.25;;;16.00;;
68192;SDS011;55012;47.562;18.414;2022-12-07T16:17:06;42.80;;;18.73;;
68192;SDS011;55012;47.562;18.414;2022-12-07T16:19:32;46.70;;;19.83;;
68192;SDS011;55012;47.562;18.414;2022-12-07T16:21:58;55.97;;;24.08;;
68192;SDS011;55012;47.562;18.414;2022-12-07T16:24:24;55.30;;;24.08;;
68192;SDS011;55012;47.562;18.414;2022-12-07T16:26:49;70.72;;;29.00;;
68192;SDS011;55012;47.562;18.414;2022-12-07T16:29:18;69.57;;;29.58;;
68192;SDS011;55012;47.562;18.414;2022-12-07T16:31:48;48.42;;;21.38;;
68192;SDS011;55012;47.562;18.414;2022-12-07T16:34:17;30.90;;;13.95;;
68192;SDS011;55012;47.562;18.414;2022-12-07T16:36:43;32.65;;;14.60;;
68192;SDS011;55012;47.562;18.414;2022-12-07T16:39:09;30.60;;;13.90;;